createdAt,value
2023-03-22T00:00:33.869Z,100820.63
2023-03-22T00:03:39.202Z,100816.00
2023-03-22T00:06:42.035Z,100809.41
2023-03-22T00:09:46.569Z,100811.59
2023-03-22T00:12:49.252Z,100799.16
2023-03-22T00:15:52.257Z,100795.25
2023-03-22T00:18:55.204Z,100795.00
2023-03-22T00:21:58.063Z,100807.50
2023-03-22T00:25:02.235Z,100805.34
2023-03-22T00:28:05.394Z,100795.38
2023-03-22T00:31:08.352Z,100793.38
2023-03-22T00:34:11.663Z,100793.06
2023-03-22T00:37:16.374Z,100788.84
2023-03-22T00:40:20.859Z,100783.09
2023-03-22T00:43:23.571Z,100787.44
2023-03-22T00:46:27.283Z,100784.13
2023-03-22T00:49:31.206Z,100783.47
2023-03-22T00:52:34.566Z,100790.03
2023-03-22T00:55:38.674Z,100789.19
2023-03-22T00:58:41.663Z,100788.63
2023-03-22T01:01:44.823Z,100780.66
2023-03-22T01:04:48.286Z,100781.22
2023-03-22T01:07:51.715Z,100771.41
2023-03-22T01:10:56.017Z,100768.66
2023-03-22T01:13:59.693Z,100762.72
2023-03-22T01:17:02.752Z,100761.53
2023-03-22T01:20:06.951Z,100759.56
2023-03-22T01:23:09.822Z,100750.69
2023-03-22T01:26:13.933Z,100758.91
2023-03-22T01:29:17.211Z,100764.31
2023-03-22T01:32:19.880Z,100748.91
2023-03-22T01:35:22.759Z,100744.31
2023-03-22T01:38:25.824Z,100741.88
2023-03-22T01:41:30.079Z,100735.84
2023-03-22T01:44:33.422Z,100731.09
2023-03-22T01:47:36.655Z,100736.22
2023-03-22T01:50:42.566Z,100732.84
2023-03-22T01:53:49.966Z,100726.84
2023-03-22T01:56:54.264Z,100730.00
2023-03-22T01:59:57.490Z,100724.94
2023-03-22T02:03:00.813Z,100733.16
2023-03-22T02:06:04.126Z,100724.78
2023-03-22T02:09:08.115Z,100726.09
2023-03-22T02:12:22.025Z,100727.69
2023-03-22T02:15:31.025Z,100727.34
2023-03-22T02:18:46.957Z,100715.06
2023-03-22T02:22:22.904Z,100710.66
2023-03-22T02:26:01.011Z,100718.63
2023-03-22T02:29:12.733Z,100715.81
2023-03-22T02:32:47.377Z,100706.28
2023-03-22T02:36:01.664Z,100703.84
2023-03-22T02:39:16.682Z,100708.00
2023-03-22T02:42:37.274Z,100714.16
2023-03-22T02:45:48.419Z,100704.44
2023-03-22T02:48:58.402Z,100699.78
2023-03-22T02:52:04.248Z,100706.22
2023-03-22T02:55:13.075Z,100696.91
2023-03-22T02:58:19.145Z,100699.31
2023-03-22T03:01:27.886Z,100694.59
2023-03-22T03:04:35.563Z,100699.31
2023-03-22T03:07:39.775Z,100697.00
2023-03-22T03:10:45.069Z,100690.97
2023-03-22T03:13:49.192Z,100688.53
2023-03-22T03:17:03.621Z,100695.94
2023-03-22T03:20:24.651Z,100696.59
2023-03-22T03:23:34.806Z,100702.31
2023-03-22T03:26:47.232Z,100711.09
2023-03-22T03:29:53.676Z,100702.53
2023-03-22T03:33:01.055Z,100709.59
2023-03-22T03:36:06.322Z,100709.28
2023-03-22T03:39:13.720Z,100713.75
2023-03-22T03:42:19.411Z,100698.16
2023-03-22T03:45:23.208Z,100692.00
2023-03-22T03:48:29.591Z,100698.16
2023-03-22T03:51:34.530Z,100700.06
2023-03-22T03:54:37.719Z,100696.56
2023-03-22T03:57:41.912Z,100696.25
2023-03-22T04:00:46.108Z,100706.94
2023-03-22T04:03:50.673Z,100693.09
2023-03-22T04:06:56.882Z,100694.16
2023-03-22T04:09:59.657Z,100696.75
2023-03-22T04:13:03.744Z,100691.59
2023-03-22T04:16:07.453Z,100697.75
2023-03-22T04:19:10.320Z,100696.31
2023-03-22T04:22:14.913Z,100691.75
2023-03-22T04:25:19.016Z,100698.56
2023-03-22T04:28:23.905Z,100699.56
2023-03-22T04:31:27.046Z,100690.66
2023-03-22T04:34:29.890Z,100698.31
2023-03-22T04:37:33.820Z,100691.34
2023-03-22T04:40:38.791Z,100684.22
2023-03-22T04:43:47.146Z,100684.31
2023-03-22T04:46:49.979Z,100677.47
2023-03-22T04:49:53.022Z,100684.50
2023-03-22T04:52:55.774Z,100684.63
2023-03-22T04:55:58.893Z,100677.97
2023-03-22T04:59:03.514Z,100669.66
2023-03-22T05:02:06.350Z,100665.75
2023-03-22T05:05:09.309Z,100667.63
2023-03-22T05:08:14.391Z,100670.94
2023-03-22T05:11:19.414Z,100666.19
2023-03-22T05:14:23.652Z,100677.13
2023-03-22T05:17:26.543Z,100666.28
2023-03-22T05:20:29.382Z,100663.53
2023-03-22T05:23:32.202Z,100656.41
2023-03-22T05:26:38.001Z,100652.50
2023-03-22T05:29:45.205Z,100658.56
2023-03-22T05:32:49.533Z,100662.44
2023-03-22T05:35:52.579Z,100664.28
2023-03-22T05:38:55.512Z,100663.53
2023-03-22T05:41:58.233Z,100659.47
2023-03-22T05:45:02.444Z,100657.13
2023-03-22T05:48:05.410Z,100664.16
2023-03-22T05:51:09.352Z,100663.84
2023-03-22T05:54:12.158Z,100658.06
2023-03-22T05:57:14.902Z,100653.81
2023-03-22T06:00:20.303Z,100657.81
2023-03-22T06:03:29.816Z,100648.34
2023-03-22T06:06:48.186Z,100654.81
2023-03-22T06:09:50.940Z,100649.06
2023-03-22T06:12:54.234Z,100655.38
2023-03-22T06:16:01.479Z,100656.56
2023-03-22T06:19:04.372Z,100655.03
2023-03-22T06:22:07.343Z,100657.47
2023-03-22T06:25:11.848Z,100655.78
2023-03-22T06:28:14.740Z,100656.63
2023-03-22T06:31:18.891Z,100655.94
2023-03-22T06:34:21.624Z,100652.47
2023-03-22T06:37:25.014Z,100658.13
2023-03-22T06:40:28.034Z,100661.34
2023-03-22T06:43:30.829Z,100657.34
2023-03-22T06:46:34.923Z,100661.81
2023-03-22T06:49:37.682Z,100664.75
2023-03-22T06:52:40.558Z,100665.63
2023-03-22T06:55:43.305Z,100667.69
2023-03-22T06:58:46.193Z,100667.03
2023-03-22T07:01:50.391Z,100656.47
2023-03-22T07:04:53.215Z,100666.19
2023-03-22T07:07:55.979Z,100671.75
2023-03-22T07:10:58.886Z,100665.38
2023-03-22T07:14:01.609Z,100668.84
2023-03-22T07:17:05.865Z,100660.19
2023-03-22T07:20:09.912Z,100663.31
2023-03-22T07:23:12.825Z,100661.53
2023-03-22T07:26:15.786Z,100662.00
2023-03-22T07:29:18.475Z,100662.25
2023-03-22T07:32:22.609Z,100654.41
2023-03-22T07:35:26.959Z,100652.38
2023-03-22T07:38:29.806Z,100645.78
2023-03-22T07:41:32.768Z,100637.91
2023-03-22T07:44:36.966Z,100635.59
2023-03-22T07:47:41.682Z,100641.31
2023-03-22T07:50:44.510Z,100630.84
2023-03-22T07:53:47.229Z,100631.22
2023-03-22T07:56:50.282Z,100632.94
2023-03-22T07:59:52.980Z,100634.22
2023-03-22T08:02:57.198Z,100629.50
2023-03-22T08:06:03.761Z,100631.47
2023-03-22T08:09:08.343Z,100621.94
2023-03-22T08:12:11.193Z,100620.34
2023-03-22T08:15:14.116Z,100624.75
2023-03-22T08:18:18.360Z,100622.28
2023-03-22T08:21:21.297Z,100624.44
2023-03-22T08:24:24.147Z,100627.78
2023-03-22T08:27:27.327Z,100614.25
2023-03-22T08:30:30.185Z,100624.75
2023-03-22T08:33:34.608Z,100617.03
2023-03-22T08:36:38.533Z,100612.91
2023-03-22T08:39:41.715Z,100612.94
2023-03-22T08:42:46.413Z,100606.94
2023-03-22T08:45:49.270Z,100614.63
2023-03-22T08:48:53.853Z,100600.06
2023-03-22T08:51:57.601Z,100594.53
2023-03-22T08:55:01.104Z,100588.72
2023-03-22T08:58:04.686Z,100592.34
2023-03-22T09:01:07.817Z,100596.44
2023-03-22T09:04:12.023Z,100591.47
2023-03-22T09:07:15.093Z,100580.97
2023-03-22T09:10:17.983Z,100589.19
2023-03-22T09:13:21.333Z,100582.81
2023-03-22T09:16:24.353Z,100583.25
2023-03-22T09:19:28.990Z,100576.34
2023-03-22T09:22:32.110Z,100578.19
2023-03-22T09:25:34.901Z,100583.88
2023-03-22T09:28:38.215Z,100582.38
2023-03-22T09:31:41.113Z,100578.00
2023-03-22T09:34:45.695Z,100577.53
2023-03-22T09:37:49.642Z,100572.25
2023-03-22T09:41:00.447Z,100564.94
2023-03-22T09:44:06.522Z,100564.78
2023-03-22T09:47:16.506Z,100564.84
2023-03-22T09:50:24.312Z,100558.91
2023-03-22T09:53:29.237Z,100561.25
2023-03-22T09:56:33.144Z,100551.06
2023-03-22T09:59:43.674Z,100550.88
2023-03-22T10:02:58.999Z,100556.00
2023-03-22T10:06:06.136Z,100553.16
2023-03-22T10:09:14.984Z,100548.06
2023-03-22T10:12:24.654Z,100548.25
2023-03-22T10:15:33.195Z,100543.41
2023-03-22T10:18:39.333Z,100543.13
2023-03-22T10:25:07.115Z,100521.72
2023-03-22T10:28:19.584Z,100508.78
2023-03-22T10:31:22.705Z,100494.84
2023-03-22T10:34:31.130Z,100484.72
2023-03-22T10:37:37.562Z,100491.91
2023-03-22T10:40:41.535Z,100490.25
2023-03-22T10:43:46.845Z,100491.81
2023-03-22T10:46:51.973Z,100481.91
2023-03-22T10:49:58.290Z,100476.16
2023-03-22T10:53:07.199Z,100472.47
2023-03-22T10:56:14.053Z,100480.56
2023-03-22T10:59:48.339Z,100479.78
2023-03-22T11:02:54.195Z,100482.25
2023-03-22T11:06:02.840Z,100476.47
2023-03-22T11:09:13.627Z,100462.34
2023-03-22T11:12:17.102Z,100467.69
2023-03-22T11:15:29.940Z,100470.03
2023-03-22T11:18:34.764Z,100464.69
2023-03-22T11:21:37.469Z,100472.19
2023-03-22T11:24:41.774Z,100473.00
2023-03-22T11:27:52.128Z,100465.63
2023-03-22T11:31:07.261Z,100472.72
2023-03-22T11:34:18.398Z,100463.44
2023-03-22T11:37:23.058Z,100464.91
2023-03-22T11:40:29.302Z,100452.09
2023-03-22T11:43:38.499Z,100436.16
2023-03-22T11:46:50.341Z,100446.00
2023-03-22T11:49:55.344Z,100431.03
2023-03-22T11:52:58.501Z,100426.72
2023-03-22T11:56:07.575Z,100422.88
2023-03-22T11:59:15.266Z,100413.91
2023-03-22T12:02:24.554Z,100414.72
2023-03-22T12:05:30.057Z,100421.41
2023-03-22T12:08:42.654Z,100410.25
2023-03-22T12:11:50.675Z,100404.75
2023-03-22T12:14:58.438Z,100401.94
2023-03-22T12:18:08.165Z,100394.56
2023-03-22T12:21:11.917Z,100394.88
2023-03-22T12:24:26.796Z,100379.47
2023-03-22T12:27:35.267Z,100380.81
2023-03-22T12:30:44.051Z,100379.97
2023-03-22T12:33:50.261Z,100373.94
2023-03-22T12:36:57.107Z,100369.03
2023-03-22T12:40:05.728Z,100371.00
2023-03-22T12:43:17.011Z,100369.81
2023-03-22T12:46:23.740Z,100368.69
2023-03-22T12:49:32.520Z,100365.25
2023-03-22T12:52:45.771Z,100361.97
2023-03-22T12:55:50.626Z,100355.44
2023-03-22T12:58:58.348Z,100353.28
2023-03-22T13:02:06.081Z,100354.91
2023-03-22T13:05:12.235Z,100345.78
2023-03-22T13:08:21.873Z,100353.16
2023-03-22T13:11:25.561Z,100351.50
2023-03-22T13:14:57.823Z,100348.16
2023-03-22T13:18:00.567Z,100352.34
2023-03-22T13:21:14.945Z,100356.94
2023-03-22T13:24:23.695Z,100356.59
2023-03-22T13:27:37.839Z,100365.03
2023-03-22T13:30:52.711Z,100351.53
2023-03-22T13:33:56.594Z,100355.69
2023-03-22T13:37:03.686Z,100354.47
2023-03-22T13:40:15.202Z,100353.53
2023-03-22T13:43:30.333Z,100363.66
2023-03-22T13:46:51.517Z,100352.66
2023-03-22T13:50:01.346Z,100340.78
2023-03-22T13:53:08.072Z,100320.84
2023-03-22T13:56:14.378Z,100323.81
2023-03-22T13:59:21.838Z,100322.34
2023-03-22T14:02:30.148Z,100314.44
2023-03-22T14:05:37.410Z,100310.97
2023-03-22T14:08:42.900Z,100306.97
2023-03-22T14:11:49.981Z,100307.19
2023-03-22T14:14:57.995Z,100321.75
2023-03-22T14:18:07.364Z,100325.50
2023-03-22T14:21:15.344Z,100326.22
